createdAt,value
2022-08-25T00:00:17.309Z,26.53
2022-08-25T00:02:54.898Z,26.47
2022-08-25T00:05:29.010Z,26.44
2022-08-25T00:07:57.724Z,26.42
2022-08-25T00:10:25.706Z,26.40
2022-08-25T00:12:53.584Z,26.38
2022-08-25T00:15:22.915Z,26.36
2022-08-25T00:17:52.430Z,26.32
2022-08-25T00:20:20.617Z,26.31
2022-08-25T00:22:49.398Z,26.27
2022-08-25T00:25:19.066Z,26.24
2022-08-25T00:27:48.192Z,26.21
2022-08-25T00:30:17.410Z,26.17
2022-08-25T00:32:55.224Z,26.10
2022-08-25T00:35:26.579Z,26.03
2022-08-25T00:37:54.775Z,25.95
2022-08-25T00:40:25.716Z,25.85
2022-08-25T00:42:54.512Z,25.77
2022-08-25T00:45:23.311Z,25.68
2022-08-25T00:47:51.120Z,25.65
2022-08-25T00:50:19.929Z,25.60
2022-08-25T00:52:54.107Z,25.56
2022-08-25T00:55:31.064Z,25.49
2022-08-25T00:58:20.270Z,25.45
2022-08-25T01:00:52.304Z,25.39
2022-08-25T01:03:23.797Z,25.30
2022-08-25T01:05:55.106Z,25.26
2022-08-25T01:08:29.132Z,25.18
2022-08-25T01:11:02.635Z,25.14
2022-08-25T01:13:47.652Z,25.09
2022-08-25T01:16:16.870Z,25.04
2022-08-25T01:18:56.484Z,24.97
2022-08-25T01:21:27.445Z,24.92
2022-08-25T01:23:58.727Z,24.89
2022-08-25T01:26:33.410Z,24.91
2022-08-25T01:29:22.795Z,24.90
2022-08-25T01:32:06.124Z,24.90
2022-08-25T01:34:37.565Z,24.88
2022-08-25T01:37:05.914Z,24.84
2022-08-25T01:39:36.654Z,24.82
2022-08-25T01:42:23.989Z,24.81
2022-08-25T01:44:51.808Z,24.76
2022-08-25T01:47:19.665Z,24.69
2022-08-25T01:49:47.499Z,24.64
2022-08-25T01:52:32.214Z,24.65
2022-08-25T01:55:00.006Z,24.64
2022-08-25T01:57:31.615Z,24.58
2022-08-25T01:59:59.457Z,24.57
2022-08-25T02:02:28.153Z,24.54
2022-08-25T02:04:59.317Z,24.52
2022-08-25T02:07:28.027Z,24.47
2022-08-25T02:09:55.831Z,24.47
2022-08-25T02:12:26.606Z,24.43
2022-08-25T02:14:54.371Z,24.41
2022-08-25T02:17:22.124Z,24.36
2022-08-25T02:19:50.070Z,24.31
2022-08-25T02:22:18.900Z,24.29
2022-08-25T02:24:46.773Z,24.27
2022-08-25T02:27:14.644Z,24.26
2022-08-25T02:29:42.523Z,24.25
2022-08-25T02:32:11.388Z,24.20
2022-08-25T02:34:41.534Z,24.18
2022-08-25T02:37:09.405Z,24.18
2022-08-25T02:39:37.209Z,24.16
2022-08-25T02:42:06.832Z,24.10
2022-08-25T02:44:35.500Z,24.10
2022-08-25T02:47:03.518Z,24.09
2022-08-25T02:49:32.167Z,24.08
2022-08-25T02:52:00.623Z,24.06
2022-08-25T02:54:29.496Z,24.01
2022-08-25T02:56:57.266Z,24.00
2022-08-25T02:59:25.094Z,23.97
2022-08-25T03:01:52.854Z,23.92
2022-08-25T03:04:20.722Z,23.90
2022-08-25T03:06:48.582Z,23.89
2022-08-25T03:09:17.069Z,23.84
2022-08-25T03:11:44.888Z,23.79
2022-08-25T03:14:12.938Z,23.73
2022-08-25T03:16:43.002Z,23.69
2022-08-25T03:19:14.560Z,23.77
2022-08-25T03:21:42.340Z,23.68
2022-08-25T03:24:10.129Z,23.57
2022-08-25T03:26:54.141Z,23.51
2022-08-25T03:29:32.880Z,23.49
2022-08-25T03:32:01.246Z,23.42
2022-08-25T03:34:31.102Z,23.34
2022-08-25T03:36:59.470Z,23.31
2022-08-25T03:39:27.850Z,23.31
2022-08-25T03:41:55.704Z,23.32
2022-08-25T03:44:23.595Z,23.31
2022-08-25T03:46:52.760Z,23.29
2022-08-25T03:49:23.849Z,23.27
2022-08-25T03:51:53.943Z,23.27
2022-08-25T03:54:25.579Z,23.27
2022-08-25T03:56:54.069Z,23.27
2022-08-25T03:59:21.890Z,23.26
2022-08-25T04:01:54.439Z,23.23
2022-08-25T04:04:23.511Z,23.24
2022-08-25T04:06:51.315Z,23.23
2022-08-25T04:09:19.091Z,23.23
2022-08-25T04:11:47.162Z,23.22
2022-08-25T04:14:21.492Z,23.22
2022-08-25T04:16:50.142Z,23.18
2022-08-25T04:19:17.997Z,23.17
2022-08-25T04:21:46.058Z,23.14
2022-08-25T04:24:15.231Z,23.12
2022-08-25T04:26:50.883Z,23.13
2022-08-25T04:29:23.857Z,23.14
2022-08-25T04:31:53.479Z,23.15
2022-08-25T04:34:30.296Z,23.12
2022-08-25T04:37:23.900Z,23.13
2022-08-25T04:39:51.708Z,23.09
2022-08-25T04:42:19.703Z,23.06
2022-08-25T04:44:47.723Z,23.06
2022-08-25T04:47:15.642Z,23.04
2022-08-25T04:49:43.539Z,23.02
2022-08-25T04:52:14.525Z,22.98
2022-08-25T04:54:43.961Z,22.98
2022-08-25T04:57:11.867Z,22.99
2022-08-25T04:59:39.935Z,22.99
2022-08-25T05:02:07.846Z,23.00
2022-08-25T05:04:37.148Z,23.01
2022-08-25T05:07:05.530Z,22.99
2022-08-25T05:09:33.376Z,23.00
2022-08-25T05:12:03.127Z,23.00
2022-08-25T05:14:32.602Z,23.02
2022-08-25T05:17:00.686Z,23.07
2022-08-25T05:19:28.647Z,23.11
2022-08-25T05:21:57.729Z,23.14
2022-08-25T05:24:28.089Z,23.19
2022-08-25T05:26:56.628Z,23.24
2022-08-25T05:29:24.670Z,23.25
2022-08-25T05:31:53.438Z,23.27
2022-08-25T05:34:22.308Z,23.31
2022-08-25T05:36:51.163Z,23.36
2022-08-25T05:39:19.001Z,23.37
2022-08-25T05:41:46.905Z,23.41
2022-08-25T05:44:19.136Z,23.44
2022-08-25T05:46:49.894Z,23.49
2022-08-25T05:49:18.680Z,23.52
2022-08-25T05:51:46.542Z,23.55
2022-08-25T05:54:14.484Z,23.56
2022-08-25T05:56:42.244Z,23.59
2022-08-25T05:59:10.125Z,23.61
2022-08-25T06:02:05.579Z,23.66
2022-08-25T06:04:33.624Z,23.73
2022-08-25T06:07:01.490Z,23.73
2022-08-25T06:09:29.420Z,23.78
2022-08-25T06:11:57.437Z,23.82
2022-08-25T06:14:25.655Z,23.84
2022-08-25T06:16:53.554Z,23.88
2022-08-25T06:19:23.524Z,23.92
2022-08-25T06:21:56.162Z,23.94
2022-08-25T06:24:26.619Z,23.94
2022-08-25T06:26:54.923Z,23.97
2022-08-25T06:29:22.891Z,24.00
2022-08-25T06:31:51.154Z,24.05
2022-08-25T06:34:19.785Z,24.09
2022-08-25T06:36:51.898Z,24.13
2022-08-25T06:39:20.918Z,24.15
2022-08-25T06:41:56.516Z,24.21
2022-08-25T06:44:27.765Z,24.27
2022-08-25T06:46:55.994Z,24.29
2022-08-25T06:49:27.844Z,24.36
2022-08-25T06:51:56.104Z,24.45
2022-08-25T06:54:23.871Z,24.50
2022-08-25T06:56:51.658Z,24.56
2022-08-25T06:59:19.504Z,24.62
2022-08-25T07:01:50.105Z,24.68
2022-08-25T07:04:18.660Z,24.71
2022-08-25T07:06:46.865Z,24.73
2022-08-25T07:09:15.533Z,24.79
2022-08-25T07:11:45.678Z,24.82
2022-08-25T07:14:16.881Z,24.88
2022-08-25T07:16:49.324Z,24.92
2022-08-25T07:19:21.154Z,24.96
2022-08-25T07:21:54.226Z,25.04
2022-08-25T07:24:23.572Z,25.06
2022-08-25T07:26:51.963Z,25.10
2022-08-25T07:29:32.696Z,25.14
2022-08-25T07:32:02.738Z,25.18
2022-08-25T07:34:52.521Z,25.20
2022-08-25T07:37:47.917Z,25.26
2022-08-25T07:40:21.628Z,25.29
2022-08-25T07:42:52.059Z,25.29
2022-08-25T07:45:22.038Z,25.32
2022-08-25T07:47:51.740Z,25.33
2022-08-25T07:50:20.527Z,25.38
2022-08-25T07:52:53.869Z,25.43
2022-08-25T07:55:24.946Z,25.48
2022-08-25T07:57:57.209Z,25.52
2022-08-25T08:00:30.344Z,25.62
2022-08-25T08:02:59.891Z,25.67
2022-08-25T08:05:29.068Z,25.68
2022-08-25T08:07:58.381Z,25.70
2022-08-25T08:10:48.078Z,25.75
2022-08-25T08:13:18.363Z,25.84
2022-08-25T08:15:47.679Z,25.88
2022-08-25T08:18:16.407Z,25.90
2022-08-25T08:20:48.250Z,25.96
2022-08-25T08:23:17.780Z,26.03
2022-08-25T08:25:45.636Z,26.08
2022-08-25T08:28:13.419Z,26.13
2022-08-25T08:30:53.700Z,26.18
2022-08-25T08:33:24.296Z,26.25
2022-08-25T08:36:11.838Z,26.33
2022-08-25T08:38:42.745Z,26.38
2022-08-25T08:45:03.773Z,26.52
2022-08-25T08:47:58.303Z,26.56
2022-08-25T08:51:02.209Z,26.57
2022-08-25T08:54:06.633Z,26.64
2022-08-25T08:56:48.984Z,26.68
2022-08-25T08:59:30.023Z,26.73
2022-08-25T09:02:01.903Z,26.76
2022-08-25T09:04:37.756Z,26.83
2022-08-25T09:07:21.667Z,26.85
2022-08-25T09:09:52.365Z,26.88
2022-08-25T09:13:03.123Z,26.94
2022-08-25T09:16:08.005Z,27.00
2022-08-25T09:19:03.402Z,27.06
2022-08-25T09:21:50.871Z,27.10
2022-08-25T09:25:08.803Z,27.15
2022-08-25T09:28:03.774Z,27.19
2022-08-25T09:31:12.573Z,27.25
2022-08-25T09:33:41.106Z,27.29
2022-08-25T09:36:09.295Z,27.29
2022-08-25T09:38:37.629Z,27.34
2022-08-25T09:41:08.931Z,27.37
2022-08-25T09:43:43.125Z,27.42
2022-08-25T09:46:27.128Z,27.47
2022-08-25T09:49:10.829Z,27.53
2022-08-25T09:51:42.213Z,27.58
2022-08-25T09:54:13.931Z,27.59
2022-08-25T09:57:02.128Z,27.63
2022-08-25T09:59:37.244Z,27.67
2022-08-25T10:02:28.511Z,27.74
2022-08-25T10:04:57.188Z,27.79
2022-08-25T10:07:32.448Z,27.85
2022-08-25T10:10:16.129Z,27.91
2022-08-25T10:12:51.211Z,27.96
2022-08-25T10:15:29.431Z,27.99
2022-08-25T10:18:29.782Z,28.05
2022-08-25T10:21:07.802Z,28.13
2022-08-25T10:23:47.426Z,28.16
2022-08-25T10:27:36.927Z,28.26
2022-08-25T10:30:52.532Z,28.39
2022-08-25T10:33:58.007Z,28.45
2022-08-25T10:36:47.164Z,28.50
2022-08-25T10:39:44.459Z,28.50
2022-08-25T10:42:56.843Z,28.52
2022-08-25T10:45:46.014Z,28.59
2022-08-25T10:48:53.934Z,28.67
2022-08-25T10:51:40.157Z,28.71
2022-08-25T10:54:29.119Z,28.71
2022-08-25T10:57:09.019Z,28.75
2022-08-25T11:00:04.301Z,28.81
2022-08-25T11:02:58.068Z,28.89
2022-08-25T11:05:40.404Z,28.97
2022-08-25T11:08:20.180Z,29.00
2022-08-25T11:11:00.948Z,29.02
2022-08-25T11:13:50.757Z,29.11
2022-08-25T11:16:34.099Z,29.12
2022-08-25T11:19:21.213Z,29.16
2022-08-25T11:21:56.653Z,29.16
2022-08-25T11:25:18.481Z,29.20
2022-08-25T11:28:31.090Z,29.25
2022-08-25T11:31:02.868Z,29.23
2022-08-25T11:33:33.695Z,29.25
2022-08-25T11:36:16.169Z,29.33
2022-08-25T11:39:16.747Z,29.42
2022-08-25T11:42:16.394Z,29.48
2022-08-25T11:45:07.922Z,29.56
2022-08-25T11:48:06.650Z,29.63
2022-08-25T11:51:00.647Z,29.73
2022-08-25T11:53:48.470Z,29.78
2022-08-25T11:56:40.231Z,29.79
2022-08-25T11:59:09.086Z,29.83
2022-08-25T12:01:40.111Z,29.88
2022-08-25T12:04:13.245Z,29.92
2022-08-25T12:07:07.452Z,29.98
2022-08-25T12:09:55.249Z,30.07
2022-08-25T12:12:46.813Z,30.13
2022-08-25T12:15:26.947Z,30.14
2022-08-25T12:18:23.165Z,30.16
2022-08-25T12:20:55.198Z,30.17
2022-08-25T12:23:36.251Z,30.26
2022-08-25T12:26:46.570Z,30.47
2022-08-25T12:29:50.944Z,30.67
2022-08-25T12:32:58.609Z,30.80
2022-08-25T12:35:55.945Z,30.94
2022-08-25T12:38:51.858Z,31.11
2022-08-25T12:41:22.646Z,31.22
2022-08-25T12:44:09.090Z,31.38
2022-08-25T12:46:39.596Z,31.55
2022-08-25T12:49:31.455Z,31.70
2022-08-25T12:52:06.945Z,31.83
2022-08-25T12:54:52.722Z,32.01
2022-08-25T12:57:58.104Z,32.21
2022-08-25T13:00:52.649Z,32.39
2022-08-25T13:03:49.805Z,32.49
2022-08-25T13:07:09.203Z,32.52
2022-08-25T13:09:58.782Z,32.88
2022-08-25T13:13:01.639Z,33.16
2022-08-25T13:15:47.122Z,33.42
2022-08-25T13:18:28.857Z,33.63
2022-08-25T13:21:30.557Z,33.85
2022-08-25T13:26:57.804Z,34.21
2022-08-25T13:29:29.851Z,34.31
2022-08-25T13:32:09.206Z,34.38
2022-08-25T13:34:42.590Z,34.45
2022-08-25T13:37:29.596Z,34.36
2022-08-25T13:40:25.857Z,34.18
2022-08-25T13:43:03.038Z,34.18
2022-08-25T13:45:41.591Z,34.33
2022-08-25T13:48:23.056Z,34.52
2022-08-25T13:51:09.264Z,34.79
2022-08-25T13:53:40.515Z,35.00
2022-08-25T13:56:08.504Z,35.19
2022-08-25T13:58:45.296Z,35.40
2022-08-25T14:01:48.573Z,35.59
2022-08-25T14:04:32.491Z,35.75
2022-08-25T14:07:09.259Z,35.93
2022-08-25T14:09:54.351Z,35.99
2022-08-25T14:12:46.770Z,36.07
2022-08-25T14:15:17.557Z,36.19
2022-08-25T14:18:19.159Z,36.30
2022-08-25T14:20:53.528Z,36.42
2022-08-25T14:23:29.139Z,36.29
2022-08-25T14:25:58.330Z,36.02
2022-08-25T14:28:30.319Z,35.87
2022-08-25T14:31:33.680Z,35.99
2022-08-25T14:34:12.303Z,36.21
2022-08-25T14:36:40.332Z,36.21
2022-08-25T14:39:09.051Z,36.29
2022-08-25T14:41:40.815Z,36.40
2022-08-25T14:44:10.346Z,36.56
2022-08-25T14:46:44.585Z,36.69
2022-08-25T14:49:24.690Z,36.80
2022-08-25T14:51:53.932Z,36.94
2022-08-25T14:54:27.510Z,37.08
2022-08-25T14:56:56.672Z,37.28
2022-08-25T14:59:24.610Z,37.41
2022-08-25T15:01:52.689Z,37.56
2022-08-25T15:04:28.540Z,37.70
2022-08-25T15:07:02.859Z,37.81
2022-08-25T15:09:33.517Z,37.95
2022-08-25T15:12:48.220Z,37.95
2022-08-25T15:15:22.047Z,38.06
2022-08-25T15:17:50.624Z,38.10
2022-08-25T15:20:19.298Z,38.16
2022-08-25T15:22:48.237Z,38.22
2022-08-25T15:25:16.597Z,38.28
2022-08-25T15:27:46.051Z,38.38
2022-08-25T15:30:15.059Z,38.45
2022-08-25T15:32:43.336Z,38.48
2022-08-25T15:35:12.411Z,38.54
2022-08-25T15:37:44.755Z,38.63
2022-08-25T15:40:14.456Z,38.68
2022-08-25T15:42:42.822Z,38.67
2022-08-25T15:45:14.702Z,38.68
2022-08-25T15:47:43.145Z,38.66
2022-08-25T15:50:21.971Z,38.63
2022-08-25T15:52:51.860Z,38.59
2022-08-25T15:55:20.099Z,38.52
2022-08-25T15:57:49.752Z,38.41
2022-08-25T16:00:19.141Z,38.32
2022-08-25T16:02:46.956Z,38.23
2022-08-25T16:05:16.528Z,38.06
2022-08-25T16:07:46.252Z,37.87
2022-08-25T16:10:20.077Z,37.69
2022-08-25T16:12:48.058Z,37.51
2022-08-25T16:15:16.158Z,37.24
2022-08-25T16:17:46.999Z,36.99
2022-08-25T16:20:19.938Z,36.72
2022-08-25T16:22:49.507Z,36.45
2022-08-25T16:25:19.095Z,36.28
2022-08-25T16:27:48.447Z,36.08
2022-08-25T16:30:17.584Z,35.92
2022-08-25T16:32:46.781Z,35.76
2022-08-25T16:35:14.822Z,35.62
2022-08-25T16:37:42.651Z,35.45
2022-08-25T16:40:14.869Z,35.33
2022-08-25T16:42:43.323Z,35.24
2022-08-25T16:45:12.088Z,35.10
2022-08-25T16:47:42.632Z,34.99
2022-08-25T16:50:11.525Z,34.87
2022-08-25T16:52:59.309Z,34.75
2022-08-25T16:56:04.446Z,34.64
2022-08-25T16:58:34.587Z,34.54
2022-08-25T17:01:11.416Z,34.44
2022-08-25T17:03:44.079Z,34.37
2022-08-25T17:06:14.256Z,34.26
2022-08-25T17:08:43.158Z,34.21
2022-08-25T17:11:16.809Z,34.13
2022-08-25T17:13:49.755Z,34.09
2022-08-25T17:16:23.071Z,34.00
2022-08-25T17:18:52.569Z,33.90
2022-08-25T17:21:24.606Z,33.74
2022-08-25T17:23:55.415Z,33.62
2022-08-25T17:26:27.709Z,33.51
2022-08-25T17:29:00.833Z,33.37
2022-08-25T17:31:30.878Z,33.26
2022-08-25T17:33:59.402Z,33.14
2022-08-25T17:36:27.788Z,33.05
2022-08-25T17:38:56.715Z,32.96
2022-08-25T17:41:25.138Z,32.87
2022-08-25T17:43:52.956Z,32.79
2022-08-25T17:46:22.074Z,32.72
2022-08-25T17:48:50.170Z,32.66
2022-08-25T17:51:18.421Z,32.56
2022-08-25T17:53:47.012Z,32.49
2022-08-25T17:56:18.876Z,32.39
2022-08-25T17:58:47.855Z,32.31
2022-08-25T18:01:22.299Z,32.23
2022-08-25T18:03:50.622Z,32.18
2022-08-25T18:06:21.946Z,32.09
2022-08-25T18:08:52.184Z,32.01
2022-08-25T18:11:23.660Z,31.95
2022-08-25T18:13:53.754Z,31.86
2022-08-25T18:16:23.314Z,31.78
2022-08-25T18:18:52.850Z,31.69
2022-08-25T18:21:22.428Z,31.64
2022-08-25T18:23:50.510Z,31.59
2022-08-25T18:26:21.928Z,31.51
2022-08-25T18:28:53.388Z,31.45
2022-08-25T18:31:21.327Z,31.37
2022-08-25T18:33:51.038Z,31.30
2022-08-25T18:36:21.335Z,31.23
2022-08-25T18:39:08.934Z,31.16
2022-08-25T18:41:40.317Z,31.11
2022-08-25T18:44:10.598Z,31.04
2022-08-25T18:46:40.275Z,30.96
2022-08-25T18:49:08.615Z,30.91
2022-08-25T18:51:37.275Z,30.87
2022-08-25T18:54:05.903Z,30.81
2022-08-25T18:56:34.633Z,30.78
2022-08-25T18:59:49.969Z,30.74
2022-08-25T19:02:19.123Z,30.71
2022-08-25T19:04:47.173Z,30.63
2022-08-25T19:07:14.932Z,30.57
2022-08-25T19:09:42.725Z,30.55
2022-08-25T19:12:11.854Z,30.50
2022-08-25T19:14:50.690Z,30.48
2022-08-25T19:17:18.467Z,30.44
2022-08-25T19:19:46.273Z,30.42
2022-08-25T19:22:37.968Z,30.39
2022-08-25T19:25:02.426Z,30.38
2022-08-25T19:27:30.373Z,30.33
2022-08-25T19:29:58.891Z,30.30
2022-08-25T19:32:29.212Z,30.27
2022-08-25T19:34:57.624Z,30.20
2022-08-25T19:37:28.369Z,30.13
2022-08-25T19:39:57.692Z,30.03
2022-08-25T19:42:35.139Z,29.97
2022-08-25T19:45:10.765Z,29.92
2022-08-25T19:47:39.981Z,29.82
2022-08-25T19:50:09.559Z,29.74
2022-08-25T19:52:37.943Z,29.68
2022-08-25T19:55:07.720Z,29.62
2022-08-25T19:57:42.983Z,29.56
2022-08-25T20:00:30.034Z,29.53
2022-08-25T20:03:02.574Z,29.47
2022-08-25T20:05:31.536Z,29.42
2022-08-25T20:07:59.971Z,29.38
2022-08-25T20:10:31.854Z,29.31
2022-08-25T20:13:05.408Z,29.25
2022-08-25T20:15:39.090Z,29.18
2022-08-25T20:18:08.065Z,29.14
2022-08-25T20:20:36.284Z,29.11
2022-08-25T20:23:27.890Z,29.09
2022-08-25T20:25:55.763Z,29.06
2022-08-25T20:28:24.293Z,29.02
2022-08-25T20:30:52.123Z,29.02
2022-08-25T20:33:23.121Z,28.98
2022-08-25T20:35:53.092Z,28.95
2022-08-25T20:38:21.308Z,28.91
2022-08-25T20:40:49.195Z,28.90
2022-08-25T20:43:17.872Z,28.88
2022-08-25T20:45:49.095Z,28.86
2022-08-25T20:48:17.592Z,28.84
2022-08-25T20:50:45.356Z,28.83
2022-08-25T20:53:25.776Z,28.83
2022-08-25T20:55:53.587Z,28.79
2022-08-25T20:58:21.440Z,28.79
2022-08-25T21:00:49.269Z,28.77
2022-08-25T21:03:17.026Z,28.74
2022-08-25T21:05:47.602Z,28.75
2022-08-25T21:08:21.604Z,28.73
2022-08-25T21:10:51.652Z,28.70
2022-08-25T21:13:19.410Z,28.65
2022-08-25T21:15:49.007Z,28.60
2022-08-25T21:18:16.775Z,28.56
2022-08-25T21:20:44.703Z,28.52
2022-08-25T21:23:12.484Z,28.48
2022-08-25T21:25:42.174Z,28.44
2022-08-25T21:28:09.949Z,28.39
2022-08-25T21:30:44.813Z,28.36
2022-08-25T21:33:15.437Z,28.34
2022-08-25T21:35:43.715Z,28.30
2022-08-25T21:38:11.475Z,28.26
2022-08-25T21:40:39.846Z,28.23
2022-08-25T21:43:12.747Z,28.21
2022-08-25T21:45:46.697Z,28.19
2022-08-25T21:48:15.403Z,28.22
2022-08-25T21:50:43.195Z,28.22
2022-08-25T21:53:11.876Z,28.23
2022-08-25T21:55:41.901Z,28.26
2022-08-25T21:58:09.937Z,28.27
2022-08-25T22:00:37.715Z,28.26
2022-08-25T22:03:05.632Z,28.22
2022-08-25T22:05:37.440Z,28.17
2022-08-25T22:08:05.665Z,28.09
2022-08-25T22:10:33.524Z,28.05
2022-08-25T22:13:02.680Z,28.03
2022-08-25T22:15:30.527Z,28.00
2022-08-25T22:17:58.306Z,27.98
2022-08-25T22:20:26.194Z,27.94
2022-08-25T22:22:56.724Z,27.92
2022-08-25T22:25:24.542Z,27.88
2022-08-25T22:27:56.621Z,27.85
2022-08-25T22:30:26.078Z,27.80
2022-08-25T22:32:59.027Z,27.81
2022-08-25T22:35:28.190Z,27.77
2022-08-25T22:37:56.045Z,27.76
2022-08-25T22:40:24.026Z,27.76
2022-08-25T22:42:52.282Z,27.75
2022-08-25T22:45:20.681Z,27.73
2022-08-25T22:47:48.738Z,27.71
2022-08-25T22:50:18.104Z,27.68
2022-08-25T22:52:46.881Z,27.64
2022-08-25T22:55:16.356Z,27.62
2022-08-25T22:57:44.839Z,27.61
2022-08-25T23:00:15.417Z,27.60
2022-08-25T23:02:45.285Z,27.53
2022-08-25T23:05:15.412Z,27.45
2022-08-25T23:07:43.300Z,27.40
2022-08-25T23:10:14.101Z,27.30
2022-08-25T23:12:44.086Z,27.23
2022-08-25T23:15:14.172Z,27.16
2022-08-25T23:17:42.030Z,27.09
2022-08-25T23:20:29.225Z,27.02
2022-08-25T23:22:58.536Z,26.94
2022-08-25T23:25:26.369Z,26.83
2022-08-25T23:27:54.285Z,26.74
2022-08-25T23:30:22.375Z,26.68
2022-08-25T23:32:50.213Z,26.63
2022-08-25T23:35:18.079Z,26.58
2022-08-25T23:37:47.267Z,26.51
2022-08-25T23:40:19.362Z,26.45
2022-08-25T23:42:47.778Z,26.41
2022-08-25T23:45:16.525Z,26.37
2022-08-25T23:47:44.361Z,26.38
2022-08-25T23:50:12.737Z,26.32
2022-08-25T23:52:40.523Z,26.28
2022-08-25T23:55:08.815Z,26.26
2022-08-25T23:57:36.631Z,26.24
